Pagrindinis puslapis
METAR-TAF:

METAR-TAF

Oro uostai :

Kelibia, Tunisas

platuma: 36-51N, ilguma: 011-05E, Aukštis: 29 m

Dabartinis oras

Ataskaita buvo paskelbta 42 minutes, ne 18:00 UTC
Vėjas 3 kt iš Šiaurės Vakarų, svyruoja nuo Vakarų/Pietvakarių ir Šiaurės/Šiaurės Rytų
Temperatūra 26°C
Drėgmė 84%
Slėgis 1015 hPa

METAR: DTTL 191800Z AUTO 31003KT 250V020 NCD 26/23 Q1015

Laikas: 19:42 (18:42 UTC)


TAF: trūkstamas

Orai ataskaitas ir orų prognozės (METAR, TAF).

turimą stotys yra geltonos ir raudonos taškus žemėlapyje.

Perkelti pele per norėdami pamatyti stoties vardą.

Tada spustelėkite, norėdami matyti oro stebėjimo ir prognozės.

Norėdami pakeisti žemėlapį: spustelėkite ant žalios mygtukų su juodo kryžiaus žemyn,; žalią mygtuką su brūkšneliu, jei norite nutolinti; arba žalių rodyklių gretimoms žemėlapius.


METAR-TAF: